createdAt,value
2022-11-23T00:01:56.855Z,10.43
2022-11-23T00:04:26.511Z,10.44
2022-11-23T00:06:55.979Z,10.45
2022-11-23T00:09:25.478Z,10.42
2022-11-23T00:11:54.981Z,10.29
2022-11-23T00:14:27.087Z,10.26
2022-11-23T00:16:56.624Z,10.34
2022-11-23T00:19:26.200Z,10.34
2022-11-23T00:21:55.910Z,10.42
2022-11-23T00:24:25.386Z,10.47
2022-11-23T00:26:54.850Z,10.51
2022-11-23T00:29:27.404Z,10.45
2022-11-23T00:31:56.860Z,10.48
2022-11-23T00:34:26.338Z,10.48
2022-11-23T00:36:55.778Z,10.50
2022-11-23T00:39:25.215Z,10.49
2022-11-23T00:41:54.684Z,10.51
2022-11-23T00:44:26.702Z,10.43
2022-11-23T00:46:56.173Z,10.45
2022-11-23T00:49:25.653Z,10.49
2022-11-23T00:51:55.096Z,10.54
2022-11-23T00:54:24.566Z,10.54
2022-11-23T00:56:54.041Z,10.52
2022-11-23T00:59:23.624Z,10.52
2022-11-23T01:01:55.769Z,10.57
2022-11-23T01:04:25.687Z,10.57
2022-11-23T01:06:58.103Z,10.49
2022-11-23T01:09:28.019Z,10.50
2022-11-23T01:11:57.501Z,10.40
2022-11-23T01:14:26.992Z,10.34
2022-11-23T01:16:59.024Z,10.43
2022-11-23T01:19:28.553Z,10.42
2022-11-23T01:21:58.085Z,10.46
2022-11-23T01:24:27.816Z,10.36
2022-11-23T01:26:57.716Z,10.32
2022-11-23T01:29:27.320Z,10.27
2022-11-23T01:31:59.344Z,10.41
2022-11-23T01:34:28.812Z,10.28
2022-11-23T01:36:58.350Z,10.38
2022-11-23T01:39:27.908Z,10.50
2022-11-23T01:41:57.329Z,10.57
2022-11-23T01:44:28.389Z,10.58
2022-11-23T01:47:00.531Z,10.76
2022-11-23T01:49:30.701Z,10.73
2022-11-23T01:52:01.022Z,10.75
2022-11-23T01:54:32.801Z,10.68
2022-11-23T01:57:03.277Z,10.66
2022-11-23T01:59:33.995Z,10.72
2022-11-23T02:02:06.423Z,10.71
2022-11-23T02:04:37.906Z,10.69
2022-11-23T02:07:07.496Z,10.67
2022-11-23T02:09:37.091Z,10.69
2022-11-23T02:12:07.342Z,10.60
2022-11-23T02:14:36.943Z,10.65
2022-11-23T02:17:09.084Z,10.67
2022-11-23T02:19:43.049Z,10.64
2022-11-23T02:22:14.283Z,10.61
2022-11-23T02:24:45.308Z,10.68
2022-11-23T02:27:17.499Z,10.35
2022-11-23T02:29:47.036Z,10.40
2022-11-23T02:32:18.862Z,10.52
2022-11-23T02:34:48.404Z,10.60
2022-11-23T02:37:18.009Z,10.54
2022-11-23T02:39:48.317Z,10.53
2022-11-23T02:42:20.569Z,10.50
2022-11-23T02:44:52.059Z,10.52
2022-11-23T02:47:21.595Z,10.56
2022-11-23T02:49:51.567Z,10.59
2022-11-23T02:52:21.193Z,10.49
2022-11-23T02:54:50.722Z,10.48
2022-11-23T02:57:22.810Z,10.61
2022-11-23T02:59:52.893Z,10.69
2022-11-23T03:02:22.472Z,10.72
2022-11-23T03:04:52.004Z,10.74
2022-11-23T03:07:21.652Z,10.76
2022-11-23T03:09:51.304Z,10.74
2022-11-23T03:12:23.461Z,10.76
2022-11-23T03:14:53.551Z,10.79
2022-11-23T03:17:23.113Z,10.82
2022-11-23T03:19:52.692Z,10.79
2022-11-23T03:22:22.214Z,10.79
2022-11-23T03:24:51.778Z,10.78
2022-11-23T03:27:23.942Z,10.81
2022-11-23T03:29:53.482Z,10.83
2022-11-23T03:32:23.034Z,10.83
2022-11-23T03:34:52.579Z,10.76
2022-11-23T03:37:22.133Z,10.79
2022-11-23T03:39:51.745Z,10.82
2022-11-23T03:42:23.896Z,10.68
2022-11-23T03:44:53.481Z,10.72
2022-11-23T03:47:23.022Z,10.77
2022-11-23T03:49:52.545Z,10.76
2022-11-23T03:52:22.881Z,10.79
2022-11-23T03:54:52.502Z,10.77
2022-11-23T03:57:24.669Z,10.82
2022-11-23T03:59:54.226Z,10.80
2022-11-23T04:02:23.815Z,10.81
2022-11-23T04:04:53.650Z,10.82
2022-11-23T04:07:23.244Z,10.81
2022-11-23T04:09:52.923Z,10.80
2022-11-23T04:12:25.999Z,10.83
2022-11-23T04:14:55.545Z,10.68
2022-11-23T04:17:25.093Z,10.62
2022-11-23T04:19:54.637Z,10.70
2022-11-23T04:22:24.205Z,10.77
2022-11-23T04:24:53.716Z,10.77
2022-11-23T04:27:25.982Z,10.79
2022-11-23T04:29:55.509Z,10.75
2022-11-23T04:32:25.054Z,10.57
2022-11-23T04:35:01.973Z,10.48
2022-11-23T04:37:33.786Z,10.22
2022-11-23T04:40:08.465Z,10.00
2022-11-23T04:42:40.657Z,10.11
2022-11-23T04:45:15.490Z,10.10
2022-11-23T04:47:45.077Z,10.21
2022-11-23T04:50:14.608Z,10.36
2022-11-23T04:52:44.177Z,10.34
2022-11-23T04:55:13.987Z,10.44
2022-11-23T04:57:49.741Z,10.28
2022-11-23T05:00:20.126Z,10.20
2022-11-23T05:02:49.811Z,9.85
2022-11-23T05:05:19.380Z,9.99
2022-11-23T05:07:49.024Z,10.32
2022-11-23T05:10:18.826Z,10.35
2022-11-23T05:12:51.030Z,10.39
2022-11-23T05:15:20.764Z,10.51
2022-11-23T05:17:51.579Z,10.29
2022-11-23T05:20:23.413Z,9.95
2022-11-23T05:22:52.977Z,9.88
2022-11-23T05:25:22.524Z,10.07
2022-11-23T05:27:54.687Z,10.00
2022-11-23T05:30:24.326Z,9.99
2022-11-23T05:32:53.912Z,9.87
2022-11-23T05:35:23.477Z,9.74
2022-11-23T05:37:53.034Z,9.49
2022-11-23T05:40:22.648Z,9.72
2022-11-23T05:42:57.293Z,9.79
2022-11-23T05:45:26.981Z,9.42
2022-11-23T05:47:57.215Z,9.76
2022-11-23T05:50:30.398Z,9.63
2022-11-23T05:52:59.983Z,9.60
2022-11-23T05:55:29.714Z,9.74
2022-11-23T05:58:01.894Z,9.71
2022-11-23T06:00:31.496Z,9.87
2022-11-23T06:03:02.787Z,10.05
2022-11-23T06:05:32.865Z,10.07
2022-11-23T06:08:02.407Z,10.25
2022-11-23T06:10:31.953Z,10.32
2022-11-23T06:13:07.537Z,10.36
2022-11-23T06:15:37.080Z,10.50
2022-11-23T06:18:06.968Z,10.43
2022-11-23T06:20:36.528Z,10.18
2022-11-23T06:23:06.213Z,10.17
2022-11-23T06:25:35.772Z,10.23
2022-11-23T06:28:08.026Z,10.30
2022-11-23T06:30:37.539Z,10.33
2022-11-23T06:33:07.555Z,10.10
2022-11-23T06:35:37.153Z,10.13
2022-11-23T06:38:06.909Z,10.12
2022-11-23T06:40:36.474Z,10.23
2022-11-23T06:43:09.144Z,10.04
2022-11-23T06:45:38.865Z,10.19
2022-11-23T06:48:09.132Z,10.31
2022-11-23T06:50:38.679Z,10.22
2022-11-23T06:53:08.457Z,10.25
2022-11-23T06:55:38.013Z,10.24
2022-11-23T06:58:10.200Z,10.28
2022-11-23T07:00:39.713Z,10.35
2022-11-23T07:03:09.340Z,10.35
2022-11-23T07:05:41.197Z,10.38
2022-11-23T07:08:11.155Z,10.47
2022-11-23T07:10:40.780Z,10.47
2022-11-23T07:13:14.375Z,10.49
2022-11-23T07:15:43.996Z,10.50
2022-11-23T07:18:13.549Z,10.47
2022-11-23T07:20:43.079Z,10.50
2022-11-23T07:23:13.664Z,10.51
2022-11-23T07:25:43.187Z,10.51
2022-11-23T07:28:16.144Z,10.55
2022-11-23T07:30:45.705Z,10.58
2022-11-23T07:33:15.620Z,10.29
2022-11-23T07:35:45.339Z,9.84
2022-11-23T07:38:15.006Z,10.02
2022-11-23T07:40:44.671Z,10.22
2022-11-23T07:43:17.227Z,10.36
2022-11-23T07:45:47.349Z,10.48
2022-11-23T07:48:17.484Z,10.19
2022-11-23T07:50:47.048Z,10.16
2022-11-23T07:53:17.746Z,10.51
2022-11-23T07:55:47.726Z,10.54
2022-11-23T07:58:20.552Z,10.40
2022-11-23T08:00:50.791Z,10.49
2022-11-23T08:03:30.079Z,10.13
2022-11-23T08:06:00.691Z,9.79
2022-11-23T08:08:31.267Z,9.97
2022-11-23T08:11:00.950Z,10.08
2022-11-23T08:13:34.766Z,10.12
2022-11-23T08:16:04.767Z,10.27
2022-11-23T08:18:34.557Z,10.10
2022-11-23T08:21:04.334Z,9.61
2022-11-23T08:23:34.525Z,9.78
2022-11-23T08:26:10.360Z,10.07
2022-11-23T08:28:45.957Z,9.54
2022-11-23T08:31:15.768Z,9.58
2022-11-23T08:33:46.084Z,9.36
2022-11-23T08:36:22.459Z,9.50
2022-11-23T08:38:54.246Z,9.58
2022-11-23T08:41:24.467Z,9.60
2022-11-23T08:43:57.591Z,9.71
2022-11-23T08:46:27.623Z,9.92
2022-11-23T08:48:58.776Z,9.93
2022-11-23T08:51:29.145Z,9.93
2022-11-23T08:54:00.747Z,9.59
2022-11-23T08:56:30.567Z,9.69
2022-11-23T08:59:08.525Z,9.53
2022-11-23T09:01:38.567Z,9.55
2022-11-23T09:04:10.026Z,9.37
2022-11-23T09:06:43.946Z,9.22
2022-11-23T09:09:16.591Z,9.48
2022-11-23T09:11:46.902Z,9.70
2022-11-23T09:14:22.345Z,9.94
2022-11-23T09:16:52.687Z,9.94
2022-11-23T09:19:22.901Z,10.29
2022-11-23T09:21:54.602Z,10.01
2022-11-23T09:24:30.079Z,10.05
2022-11-23T09:27:02.166Z,10.24
2022-11-23T09:29:38.696Z,10.54
2022-11-23T09:32:09.630Z,11.02
2022-11-23T09:34:40.340Z,11.91
2022-11-23T09:37:10.886Z,12.01
2022-11-23T09:39:41.545Z,12.44
2022-11-23T09:42:25.103Z,12.73
2022-11-23T09:45:09.234Z,12.93
2022-11-23T09:47:48.990Z,12.93
2022-11-23T09:50:25.524Z,12.56
2022-11-23T09:52:55.221Z,12.82
2022-11-23T09:55:28.448Z,12.89
2022-11-23T09:58:02.736Z,12.48
2022-11-23T10:00:40.117Z,12.34
2022-11-23T10:03:13.221Z,12.45
2022-11-23T10:05:44.821Z,12.77
2022-11-23T10:08:17.846Z,13.09
2022-11-23T10:10:48.316Z,12.99
2022-11-23T10:13:27.177Z,12.83
2022-11-23T10:16:05.665Z,13.07
2022-11-23T10:18:39.955Z,12.98
2022-11-23T10:21:13.432Z,12.92
2022-11-23T10:23:56.571Z,13.04
2022-11-23T10:26:29.940Z,13.04
2022-11-23T10:29:01.029Z,12.76
2022-11-23T10:31:34.091Z,12.79
2022-11-23T10:34:07.864Z,12.73
2022-11-23T10:36:38.748Z,12.54
2022-11-23T10:39:17.239Z,12.32
2022-11-23T10:41:47.517Z,12.28
2022-11-23T10:44:30.188Z,12.25
2022-11-23T10:47:03.231Z,12.72
2022-11-23T10:49:33.612Z,12.59
2022-11-23T10:52:05.876Z,12.70
2022-11-23T10:54:36.630Z,13.02
2022-11-23T10:57:23.068Z,13.16
2022-11-23T11:00:00.443Z,13.19
2022-11-23T11:02:32.714Z,13.33
2022-11-23T11:06:01.075Z,13.43
2022-11-23T11:08:17.874Z,13.45
2022-11-23T11:10:50.199Z,13.69
2022-11-23T11:13:26.983Z,13.87
2022-11-23T11:15:57.742Z,14.06
2022-11-23T11:18:34.619Z,14.23
2022-11-23T11:21:06.411Z,14.24
2022-11-23T11:23:36.489Z,14.26
2022-11-23T11:26:16.428Z,14.13
2022-11-23T11:28:46.149Z,12.89
2022-11-23T11:31:29.119Z,13.01
2022-11-23T11:34:04.261Z,13.50
2022-11-23T11:36:37.298Z,13.40
2022-11-23T11:39:18.367Z,13.09
2022-11-23T11:41:48.585Z,13.23
2022-11-23T11:44:20.983Z,13.40
2022-11-23T11:46:52.266Z,12.46
2022-11-23T11:49:26.223Z,12.16
2022-11-23T11:51:57.378Z,12.33
2022-11-23T11:54:27.624Z,11.79
2022-11-23T11:56:58.327Z,11.85
2022-11-23T11:59:29.571Z,12.32
2022-11-23T12:02:00.371Z,12.56
2022-11-23T12:04:37.412Z,12.22
2022-11-23T12:07:08.378Z,12.08
2022-11-23T12:09:39.947Z,12.09
2022-11-23T12:12:14.505Z,11.97
2022-11-23T12:14:44.081Z,11.73
2022-11-23T12:17:32.382Z,11.54
2022-11-23T12:20:07.953Z,11.57
2022-11-23T12:22:42.370Z,11.54
2022-11-23T12:25:19.782Z,11.34
2022-11-23T12:27:56.741Z,11.62
2022-11-23T12:30:27.974Z,11.86
2022-11-23T12:33:06.602Z,11.72
2022-11-23T12:35:58.499Z,11.49
2022-11-23T12:38:32.916Z,11.18
2022-11-23T12:41:11.772Z,11.18
2022-11-23T12:43:48.883Z,11.13
2022-11-23T12:46:20.478Z,11.16
2022-11-23T12:48:58.020Z,11.33
2022-11-23T12:51:36.446Z,11.37
2022-11-23T12:54:15.481Z,11.39
2022-11-23T12:56:58.014Z,11.35
2022-11-23T12:59:27.609Z,11.35
2022-11-23T13:02:00.079Z,11.51
2022-11-23T13:04:49.408Z,11.54
2022-11-23T13:07:42.296Z,11.29
2022-11-23T13:10:21.235Z,11.13
2022-11-23T13:13:15.421Z,10.91
2022-11-23T13:15:54.417Z,10.90
2022-11-23T13:18:30.837Z,11.02
2022-11-23T13:21:08.282Z,11.17
2022-11-23T13:23:41.122Z,11.19
2022-11-23T13:26:20.950Z,11.01
2022-11-23T13:28:50.779Z,10.83
2022-11-23T13:31:23.679Z,10.78
2022-11-23T13:33:55.172Z,10.98
2022-11-23T13:37:11.157Z,11.05
2022-11-23T13:40:03.811Z,11.11
2022-11-23T13:42:37.432Z,10.94
2022-11-23T13:45:17.570Z,10.85
2022-11-23T13:48:08.472Z,10.83
2022-11-23T13:50:38.066Z,10.76
2022-11-23T13:53:07.647Z,10.80
2022-11-23T13:55:37.858Z,10.86
2022-11-23T13:58:49.392Z,10.75
2022-11-23T14:01:46.882Z,10.89
2022-11-23T14:04:22.708Z,10.86
2022-11-23T14:06:55.492Z,10.73
2022-11-23T14:09:27.871Z,10.48
2022-11-23T14:12:06.820Z,10.34
2022-11-23T14:14:44.165Z,10.23
2022-11-23T14:17:33.198Z,10.19
2022-11-23T14:20:22.579Z,10.23
2022-11-23T14:23:00.858Z,10.12
2022-11-23T14:25:38.548Z,10.18
2022-11-23T14:28:12.311Z,10.27
2022-11-23T14:30:49.561Z,10.07
2022-11-23T14:33:29.988Z,9.98
2022-11-23T14:36:08.922Z,10.05
2022-11-23T14:38:49.783Z,9.92
2022-11-23T14:41:20.474Z,9.91
2022-11-23T14:43:49.941Z,9.78
2022-11-23T14:46:21.178Z,9.74
2022-11-23T14:48:53.493Z,9.80
2022-11-23T14:51:26.553Z,9.90
2022-11-23T14:53:57.164Z,9.78
2022-11-23T14:56:33.075Z,9.88
2022-11-23T14:59:04.556Z,9.89
2022-11-23T15:01:34.108Z,9.95
2022-11-23T15:04:11.297Z,10.22
2022-11-23T15:06:45.586Z,10.21
2022-11-23T15:09:19.172Z,10.25
2022-11-23T15:11:49.224Z,10.20
2022-11-23T15:14:20.612Z,10.21
2022-11-23T15:16:50.255Z,10.19
2022-11-23T15:19:26.055Z,10.14
2022-11-23T15:21:55.536Z,10.17
2022-11-23T15:24:25.617Z,10.24
2022-11-23T15:26:55.528Z,10.23
2022-11-23T15:29:35.831Z,10.57
2022-11-23T15:32:33.374Z,10.70
2022-11-23T15:35:08.310Z,10.50
2022-11-23T15:37:40.633Z,10.21
2022-11-23T15:40:15.606Z,10.31
2022-11-23T15:42:45.352Z,10.41
2022-11-23T15:45:36.110Z,10.24
2022-11-23T15:48:05.895Z,10.29
2022-11-23T15:50:38.476Z,10.37
2022-11-23T15:53:07.939Z,10.61
2022-11-23T15:55:37.434Z,10.83
2022-11-23T15:58:07.673Z,10.56
2022-11-23T16:00:37.181Z,10.72
2022-11-23T16:03:34.925Z,10.74
2022-11-23T16:06:25.356Z,10.69
2022-11-23T16:08:54.812Z,10.96
2022-11-23T16:11:32.609Z,11.20
2022-11-23T16:14:15.400Z,11.46
2022-11-23T16:16:46.269Z,11.68
2022-11-23T16:19:26.714Z,11.91
2022-11-23T16:22:02.581Z,12.01
2022-11-23T16:24:32.991Z,11.73
2022-11-23T16:27:03.146Z,11.69
2022-11-23T16:29:38.793Z,11.34
2022-11-23T16:32:09.596Z,11.28
2022-11-23T16:34:39.121Z,11.06
2022-11-23T16:37:11.193Z,10.83
2022-11-23T16:39:40.627Z,10.63
2022-11-23T16:42:10.081Z,10.61
2022-11-23T16:44:41.906Z,10.49
2022-11-23T16:47:24.785Z,10.36
2022-11-23T16:49:54.445Z,10.00
2022-11-23T16:52:26.603Z,9.62
2022-11-23T16:54:56.027Z,9.24
2022-11-23T16:57:31.615Z,9.46
2022-11-23T17:00:10.526Z,9.05
2022-11-23T17:02:40.025Z,9.37
2022-11-23T17:05:12.378Z,9.40
2022-11-23T17:07:44.467Z,9.13
2022-11-23T17:10:14.163Z,8.92
2022-11-23T17:12:43.744Z,8.73
2022-11-23T17:15:13.603Z,8.91
2022-11-23T17:17:43.299Z,9.04
2022-11-23T17:20:14.239Z,9.37
2022-11-23T17:22:46.491Z,9.28
2022-11-23T17:25:15.906Z,9.53
2022-11-23T17:27:46.188Z,9.43
2022-11-23T17:30:17.390Z,9.58
2022-11-23T17:32:46.896Z,9.52
2022-11-23T17:35:16.447Z,9.63
2022-11-23T17:37:48.676Z,9.61
2022-11-23T17:40:18.688Z,9.84
2022-11-23T17:42:48.285Z,9.86
2022-11-23T17:45:18.014Z,9.71
2022-11-23T17:47:47.725Z,9.76
2022-11-23T17:50:19.670Z,9.92
2022-11-23T17:52:51.709Z,10.16
2022-11-23T17:55:21.153Z,10.05
2022-11-23T17:57:50.580Z,10.19
2022-11-23T18:00:21.955Z,10.35
2022-11-23T18:02:52.947Z,10.49
2022-11-23T18:05:22.612Z,10.62
2022-11-23T18:07:54.761Z,10.68
2022-11-23T18:10:24.300Z,10.72
2022-11-23T18:12:53.770Z,10.69
2022-11-23T18:15:23.458Z,10.73
2022-11-23T18:17:52.908Z,10.69
2022-11-23T18:20:22.596Z,10.69
2022-11-23T18:22:54.653Z,10.70
2022-11-23T18:25:24.112Z,10.74
2022-11-23T18:27:54.369Z,10.79
2022-11-23T18:30:23.835Z,10.82
2022-11-23T18:32:53.306Z,10.81
2022-11-23T18:35:23.003Z,10.81
2022-11-23T18:37:55.052Z,10.83
2022-11-23T18:40:24.531Z,10.84
2022-11-23T18:42:54.004Z,10.87
2022-11-23T18:45:23.674Z,10.86
2022-11-23T18:47:53.156Z,10.86
2022-11-23T18:50:22.632Z,10.85
2022-11-23T18:52:54.902Z,10.84
2022-11-23T18:55:24.358Z,10.83
2022-11-23T18:57:55.960Z,10.83
2022-11-23T19:00:25.658Z,10.84
2022-11-23T19:02:55.990Z,10.87
2022-11-23T19:05:25.556Z,10.91
2022-11-23T19:07:57.636Z,10.88
2022-11-23T19:10:27.176Z,10.81
2022-11-23T19:12:58.813Z,10.80
2022-11-23T19:15:31.863Z,10.80
2022-11-23T19:18:01.433Z,10.74
2022-11-23T19:20:31.504Z,10.75
2022-11-23T19:23:03.529Z,10.73
2022-11-23T19:25:33.837Z,10.70
2022-11-23T19:28:03.333Z,10.65
2022-11-23T19:30:32.807Z,10.57
2022-11-23T19:33:02.246Z,10.47
2022-11-23T19:35:31.745Z,10.44
2022-11-23T19:38:03.788Z,10.41
2022-11-23T19:40:33.251Z,10.39
2022-11-23T19:43:02.926Z,10.39
2022-11-23T19:45:32.564Z,10.36
2022-11-23T19:48:02.045Z,10.33
2022-11-23T19:50:31.785Z,10.28
2022-11-23T19:53:12.467Z,10.19
2022-11-23T19:55:42.192Z,10.13
2022-11-23T19:58:11.607Z,10.14
2022-11-23T20:00:45.957Z,10.09
2022-11-23T20:03:15.717Z,10.04
2022-11-23T20:05:59.027Z,10.03
2022-11-23T20:08:31.186Z,9.99
2022-11-23T20:11:00.726Z,9.99
2022-11-23T20:13:30.163Z,9.94
2022-11-23T20:16:04.057Z,9.83
2022-11-23T20:18:33.576Z,9.87
2022-11-23T20:21:03.125Z,9.81
2022-11-23T20:23:35.168Z,9.67
2022-11-23T20:26:04.596Z,9.81
2022-11-23T20:28:34.049Z,9.85
2022-11-23T20:31:06.079Z,9.91
2022-11-23T20:33:35.594Z,9.96
2022-11-23T20:36:12.004Z,10.04
2022-11-23T20:38:44.068Z,10.07
2022-11-23T20:41:15.456Z,9.68
2022-11-23T20:43:45.615Z,9.73
2022-11-23T20:46:31.682Z,9.79
2022-11-23T20:49:04.771Z,9.79
2022-11-23T20:51:34.281Z,9.89
2022-11-23T20:54:06.890Z,10.01
2022-11-23T20:56:36.374Z,10.06
2022-11-23T20:59:05.829Z,10.10
2022-11-23T21:01:35.367Z,10.09
2022-11-23T21:04:04.896Z,10.09
2022-11-23T21:06:39.006Z,10.17
2022-11-23T21:09:12.326Z,10.21
2022-11-23T21:11:54.269Z,10.19
2022-11-23T21:14:24.662Z,10.15
2022-11-23T21:16:56.191Z,10.05
2022-11-23T21:19:26.559Z,10.03
2022-11-23T21:21:56.828Z,10.04
2022-11-23T21:24:28.919Z,10.07
2022-11-23T21:26:58.402Z,10.03
2022-11-23T21:29:28.412Z,10.02
2022-11-23T21:31:57.908Z,10.09
2022-11-23T21:34:28.114Z,10.08
2022-11-23T21:36:58.665Z,10.20
2022-11-23T21:39:33.141Z,10.21
2022-11-23T21:42:02.708Z,10.18
2022-11-23T21:44:32.623Z,10.18
2022-11-23T21:47:02.438Z,10.14
2022-11-23T21:49:31.938Z,10.09
2022-11-23T21:52:01.419Z,10.09
2022-11-23T21:54:33.771Z,10.07
2022-11-23T21:57:03.352Z,10.01
2022-11-23T21:59:32.824Z,10.10
2022-11-23T22:02:02.379Z,10.15
2022-11-23T22:04:32.125Z,10.17
2022-11-23T22:07:01.664Z,10.09
2022-11-23T22:09:34.401Z,10.11
2022-11-23T22:12:03.872Z,9.88
2022-11-23T22:14:33.486Z,9.96
2022-11-23T22:17:03.135Z,10.03
2022-11-23T22:19:32.555Z,9.97
2022-11-23T22:22:02.103Z,9.98
2022-11-23T22:24:34.436Z,9.98
2022-11-23T22:27:04.179Z,9.85
2022-11-23T22:29:33.667Z,9.94
2022-11-23T22:32:03.178Z,9.88
2022-11-23T22:34:35.480Z,9.91
2022-11-23T22:37:10.239Z,9.89
2022-11-23T22:39:42.905Z,9.92
2022-11-23T22:42:12.367Z,9.91
2022-11-23T22:44:41.870Z,9.91
2022-11-23T22:47:11.455Z,9.88
2022-11-23T22:49:40.905Z,9.80
2022-11-23T22:52:10.379Z,9.78
2022-11-23T22:54:42.380Z,9.78
2022-11-23T22:57:12.064Z,9.79
2022-11-23T22:59:41.506Z,9.74
2022-11-23T23:02:11.115Z,9.81
2022-11-23T23:04:40.578Z,9.76
2022-11-23T23:07:10.770Z,9.80
2022-11-23T23:09:42.860Z,9.66
2022-11-23T23:12:20.714Z,9.68
2022-11-23T23:14:50.156Z,9.64
2022-11-23T23:17:19.613Z,9.70
2022-11-23T23:19:49.061Z,9.71
2022-11-23T23:22:18.592Z,9.68
2022-11-23T23:24:51.403Z,9.64
2022-11-23T23:27:21.136Z,9.58
2022-11-23T23:29:50.615Z,9.60
2022-11-23T23:32:20.069Z,9.64
2022-11-23T23:34:49.646Z,9.63
2022-11-23T23:37:19.165Z,9.61
2022-11-23T23:39:51.256Z,9.59
2022-11-23T23:42:20.889Z,9.55
2022-11-23T23:44:50.341Z,9.46
2022-11-23T23:47:19.795Z,9.46
2022-11-23T23:49:49.375Z,9.40
2022-11-23T23:52:18.807Z,9.40
2022-11-23T23:54:50.897Z,9.38
2022-11-23T23:57:20.357Z,9.39
2022-11-23T23:59:49.950Z,9.45
